Avery, Idaho
Current Conditions -  °F | °C
As of 8:20 AM on Wednesday 22 Oct 2014 (Local Time) from KMLP Reporting Station
Broken Clouds Broken Clouds  
Wind Chill: 29°   Ceiling: 200
Heat Index: 34°   Visibility: 10mi
Dew Point: 33°   Wind: 6mph
Humidity: 96%   Direction: NA
Pressure: 29.98"   Gusts: NA
Location:  47.25°N, 115.81°W
Report Text: KMLP 221520Z AUTO VRB05KT 10SM BKN002 01/01 A2998 RMK AO2 T00110006
Loading
Personal Weather Stations






























Interactive Weather Map
Tropical Storm Tracking
New forecast layout! Learn more

10-Day Weather Forecast

Advertisements
Track Severe Weather on mobile